Time;durP1;ratioP1;P1;durP2;ratioP2;P2;SDS_P1;SDS_P2;PMS_P1;PMS_P2;Temp;Humidity;BMP_temperature;BMP_pressure;BME280_temperature;BME280_humidity;BME280_pressure;Samples;Min_cycle;Max_cycle;Signal;HPM_P1;HPM_P2
2022/06/29 00:02:05;;;;;;;5.15;3.80;;;;;;;24.50;50.79;99624.28;5050494;28;20112;-85
2022/06/29 00:04:30;;;;;;;8.60;4.43;;;;;;;24.67;51.85;99665.38;5051491;28;20029;-85
2022/06/29 00:06:56;;;;;;;6.25;4.28;;;;;;;24.15;51.84;99564.81;5050138;28;20024;-85
2022/06/29 00:09:21;;;;;;;5.15;4.35;;;;;;;24.30;51.98;99592.66;5051584;28;20087;-86
2022/06/29 00:11:47;;;;;;;6.03;4.65;;;;;;;24.17;52.14;99555.38;5050109;28;20021;-85
2022/06/29 00:14:12;;;;;;;5.15;4.15;;;;;;;24.39;52.36;99593.75;5050075;28;20020;-85
2022/06/29 00:16:38;;;;;;;5.35;4.25;;;;;;;24.32;52.45;99565.41;5049932;28;20056;-85
2022/06/29 00:19:03;;;;;;;6.22;4.88;;;;;;;24.44;52.22;99603.75;5055079;28;20070;-86
2022/06/29 00:21:28;;;;;;;6.70;4.38;;;;;;;24.34;52.32;99615.34;5054548;28;20083;-86
2022/06/29 00:23:54;;;;;;;5.05;4.00;;;;;;;24.20;52.42;99591.81;5054359;28;20024;-85
2022/06/29 00:26:19;;;;;;;5.45;4.72;;;;;;;24.17;52.42;99589.63;5055323;28;20501;-86
2022/06/29 00:28:45;;;;;;;5.00;4.13;;;;;;;24.56;52.40;99649.44;5053892;28;20017;-86
2022/06/29 00:31:10;;;;;;;5.93;4.55;;;;;;;24.55;52.36;99656.72;5055178;28;20031;-86
2022/06/29 00:33:36;;;;;;;4.78;4.38;;;;;;;24.07;52.57;99548.06;5053956;28;20024;-86
2022/06/29 00:36:01;;;;;;;6.47;4.85;;;;;;;22.70;52.61;99344.59;5055059;28;20021;-86
2022/06/29 00:38:26;;;;;;;5.13;4.63;;;;;;;23.98;52.59;99538.06;5053924;28;20055;-86
2022/06/29 00:40:52;;;;;;;4.60;4.10;;;;;;;24.51;52.56;99636.69;5055224;28;20021;-86
2022/06/29 00:43:17;;;;;;;5.22;4.13;;;;;;;24.50;52.49;99626.97;5053806;28;20036;-86
2022/06/29 00:45:43;;;;;;;4.65;4.05;;;;;;;22.86;52.14;99391.25;5055374;28;20025;-85
2022/06/29 00:48:08;;;;;;;5.97;4.00;;;;;;;24.53;52.22;99634.56;5053654;28;20025;-85
2022/06/29 00:50:38;;;;;;;6.30;4.22;;;;;;;24.57;52.59;99624.06;5053586;28;20029;-85
2022/06/29 00:53:05;;;;;;;4.72;4.18;;;;;;;24.69;52.60;99647.03;5053500;28;20025;-85
2022/06/29 00:55:33;;;;;;;5.25;4.60;;;;;;;24.61;52.45;99617.84;5053593;28;20048;-85
2022/06/29 00:58:03;;;;;;;4.80;4.35;;;;;;;24.65;52.53;99632.44;5055538;28;20032;-85
2022/06/29 01:00:29;;;;;;;4.68;4.28;;;;;;;24.78;52.65;99638.38;5054116;28;20032;-85
2022/06/29 01:02:57;;;;;;;4.65;4.25;;;;;;;24.17;52.81;99530.28;5053854;28;20032;-85
2022/06/29 01:05:22;;;;;;;4.78;4.28;;;;;;;24.18;52.78;99537.31;5055902;28;20064;-85
2022/06/29 01:07:48;;;;;;;4.80;4.40;;;;;;;24.13;52.28;99521.91;5076266;28;20036;-86
2022/06/29 01:10:13;;;;;;;7.15;4.20;;;;;;;24.68;52.44;99590.59;5071478;28;20032;-86
2022/06/29 01:12:39;;;;;;;6.80;4.10;;;;;;;24.59;52.32;99584.91;5065610;28;20032;-86
2022/06/29 01:15:05;;;;;;;4.68;3.80;;;;;;;24.77;52.12;99601.66;5057598;28;20033;-86
2022/06/29 01:17:31;;;;;;;4.32;3.88;;;;;;;24.16;51.95;99505.19;5057093;28;20017;-86
2022/06/29 01:19:56;;;;;;;4.40;3.72;;;;;;;24.15;51.71;99492.78;5056720;28;20086;-86
2022/06/29 01:22:25;;;;;;;5.72;4.55;;;;;;;23.34;51.50;99358.59;5062134;28;20089;-86
2022/06/29 01:24:51;;;;;;;8.05;4.05;;;;;;;24.51;51.64;99544.94;5060759;28;20105;-86
2022/06/29 01:27:18;;;;;;;6.15;4.10;;;;;;;24.70;52.12;99569.53;5055617;28;20029;-86
2022/06/29 01:29:44;;;;;;;5.63;4.10;;;;;;;24.62;52.10;99570.06;5056161;28;20040;-85
2022/06/29 01:32:10;;;;;;;6.43;4.50;;;;;;;24.03;52.25;99476.84;5056385;28;20033;-86
2022/06/29 01:34:37;;;;;;;4.40;4.00;;;;;;;24.56;52.54;99555.75;5053581;28;20035;-85
2022/06/29 01:37:03;;;;;;;5.57;3.85;;;;;;;23.97;52.59;99467.16;5053297;28;20032;-85
2022/06/29 01:39:29;;;;;;;4.20;3.80;;;;;;;24.00;52.50;99488.19;5054383;28;20051;-86
2022/06/29 01:41:55;;;;;;;4.53;4.13;;;;;;;24.23;52.55;99527.34;5052881;28;20028;-86
2022/06/29 01:44:20;;;;;;;5.70;4.63;;;;;;;24.48;52.63;99552.75;5052789;28;20398;-86
2022/06/29 01:46:46;;;;;;;5.10;4.63;;;;;;;24.32;52.75;99528.44;5054063;28;20040;-85
2022/06/29 01:49:11;;;;;;;9.70;4.70;;;;;;;24.27;52.91;99544.63;5052897;28;20025;-85
2022/06/29 01:51:37;;;;;;;4.90;4.40;;;;;;;24.00;53.01;99523.25;5052599;28;20032;-85
2022/06/29 01:54:03;;;;;;;4.80;4.40;;;;;;;24.32;53.19;99563.53;5052513;28;20559;-85
2022/06/29 01:56:29;;;;;;;5.30;4.80;;;;;;;22.99;53.04;99353.09;5052055;28;20075;-85
2022/06/29 01:58:54;;;;;;;5.07;4.57;;;;;;;24.05;53.35;99542.13;5053509;28;20106;-85
2022/06/29 02:01:20;;;;;;;5.15;4.63;;;;;;;23.80;53.56;99496.22;5053800;28;20507;-85
2022/06/29 02:03:45;;;;;;;5.15;4.22;;;;;;;23.55;53.63;99485.34;5053590;28;20029;-85
2022/06/29 02:06:11;;;;;;;5.25;4.70;;;;;;;22.81;53.76;99398.25;5053692;28;20505;-85
2022/06/29 02:08:37;;;;;;;4.75;4.22;;;;;;;22.82;53.79;99385.59;5052664;28;20469;-86
2022/06/29 02:11:02;;;;;;;6.00;4.47;;;;;;;23.73;53.94;99518.03;5052044;28;20081;-85
2022/06/29 02:13:28;;;;;;;6.18;4.93;;;;;;;23.33;53.73;99448.59;5052319;28;20485;-85
2022/06/29 02:15:53;;;;;;;6.55;4.97;;;;;;;23.33;53.93;99462.06;5053142;28;20043;-85
2022/06/29 02:18:19;;;;;;;6.45;4.70;;;;;;;23.87;54.12;99539.13;5053270;28;20036;-85
2022/06/29 02:20:45;;;;;;;5.45;4.95;;;;;;;23.92;54.13;99553.44;5052105;28;20029;-85
2022/06/29 02:23:10;;;;;;;5.35;4.85;;;;;;;23.40;53.91;99488.75;5052332;28;20510;-85
2022/06/29 02:25:36;;;;;;;5.40;4.88;;;;;;;23.96;53.94;99553.72;5053383;28;20056;-85
2022/06/29 02:28:01;;;;;;;5.65;5.15;;;;;;;23.65;53.85;99507.75;5052085;28;20124;-86
2022/06/29 02:35:55;;;;;;;7.88;4.43;;;;;;;23.72;53.63;99464.38;5053673;28;20031;-86
2022/06/29 02:38:21;;;;;;;4.95;4.35;;;;;;;23.99;53.39;99518.13;5051836;28;20032;-86
2022/06/29 02:40:47;;;;;;;6.03;4.45;;;;;;;23.43;53.47;99435.16;5052309;28;20432;-86
2022/06/29 02:43:12;;;;;;;5.20;4.30;;;;;;;22.79;53.29;99321.47;5053219;28;20056;-85
2022/06/29 02:45:37;;;;;;;7.35;5.07;;;;;;;22.97;53.42;99350.66;5051682;28;20021;-86
2022/06/29 02:48:03;;;;;;;5.03;4.53;;;;;;;23.43;53.50;99437.84;5051307;28;20409;-86
2022/06/29 02:50:28;;;;;;;4.93;4.50;;;;;;;23.69;53.71;99481.88;5052704;28;20104;-85
2022/06/29 02:52:54;;;;;;;5.38;4.88;;;;;;;23.51;53.82;99446.50;5051211;28;20467;-86
2022/06/29 02:55:19;;;;;;;6.40;4.82;;;;;;;23.61;54.01;99477.00;5050918;28;20573;-86
2022/06/29 02:57:44;;;;;;;6.53;4.72;;;;;;;23.30;53.77;99440.22;5052984;28;20025;-85
2022/06/29 03:00:13;;;;;;;5.82;5.35;;;;;;;23.57;54.26;99488.59;5058160;28;20082;-86
2022/06/29 03:02:38;;;;;;;4.82;4.38;;;;;;;23.89;54.37;99540.47;5070588;28;20032;-85
2022/06/29 03:05:04;;;;;;;5.75;4.82;;;;;;;22.53;54.64;99339.38;5055546;28;20021;-85
2022/06/29 03:07:29;;;;;;;5.75;4.90;;;;;;;23.14;54.68;99431.28;5053570;28;20028;-85
2022/06/29 03:09:54;;;;;;;4.68;4.28;;;;;;;23.60;54.69;99515.00;5051603;28;20028;-85
2022/06/29 03:12:20;;;;;;;6.50;5.10;;;;;;;23.63;54.81;99519.88;5052698;28;20493;-86
2022/06/29 03:14:45;;;;;;;5.57;5.07;;;;;;;23.28;54.71;99482.78;5051222;28;20033;-85
2022/06/29 03:17:11;;;;;;;6.70;5.03;;;;;;;23.07;54.88;99446.84;5050929;28;20020;-85
2022/06/29 03:19:36;;;;;;;7.32;5.45;;;;;;;23.29;54.96;99469.03;5052334;28;20040;-85
2022/06/29 03:22:02;;;;;;;5.72;4.93;;;;;;;23.31;54.88;99485.75;5050950;28;20393;-85
2022/06/29 03:24:27;;;;;;;6.03;5.25;;;;;;;23.71;55.15;99533.66;5052203;28;20025;-85
2022/06/29 03:26:53;;;;;;;6.32;4.93;;;;;;;22.74;55.19;99412.97;5050638;28;20485;-85
2022/06/29 03:29:18;;;;;;;6.80;6.20;;;;;;;23.34;55.11;99498.69;5050810;28;20017;-85
2022/06/29 03:31:44;;;;;;;5.47;4.93;;;;;;;23.65;55.34;99560.84;5051166;28;20028;-85
2022/06/29 03:34:09;;;;;;;5.47;5.00;;;;;;;23.65;55.06;99550.88;5052282;28;20124;-85
2022/06/29 03:36:35;;;;;;;5.93;5.32;;;;;;;23.27;55.32;99484.66;5050593;28;20025;-85
2022/06/29 03:39:00;;;;;;;6.63;5.68;;;;;;;23.29;55.20;99482.50;5051985;28;20489;-85
2022/06/29 03:41:26;;;;;;;5.55;5.00;;;;;;;22.74;55.43;99399.50;5050764;28;20033;-86
2022/06/29 03:43:51;;;;;;;5.43;4.93;;;;;;;23.27;55.27;99473.06;5050288;28;20031;-86
2022/06/29 03:46:17;;;;;;;5.50;5.00;;;;;;;23.23;55.41;99462.00;5050623;28;20035;-86
2022/06/29 03:48:42;;;;;;;5.43;4.85;;;;;;;23.35;55.33;99478.78;5050798;28;20025;-86
2022/06/29 03:51:08;;;;;;;5.65;5.15;;;;;;;23.03;55.44;99424.19;5050285;28;20047;-86
2022/06/29 03:53:33;;;;;;;6.55;5.45;;;;;;;22.92;55.33;99398.28;5050326;28;20025;-86
2022/06/29 03:55:59;;;;;;;5.97;5.40;;;;;;;22.51;55.45;99363.06;5050029;28;20053;-86
2022/06/29 03:58:24;;;;;;;6.93;5.18;;;;;;;22.98;55.45;99411.50;5052106;28;20020;-85
2022/06/29 04:00:50;;;;;;;6.18;5.28;;;;;;;23.64;55.55;99516.09;5050394;28;20028;-85
2022/06/29 04:03:15;;;;;;;5.53;5.03;;;;;;;23.45;55.61;99491.47;5051603;28;20102;-85
2022/06/29 04:05:40;;;;;;;5.15;4.63;;;;;;;22.62;55.57;99378.19;5052572;28;20029;-85
2022/06/29 04:08:06;;;;;;;6.75;5.32;;;;;;;23.59;55.60;99541.16;5051458;28;20028;-85
2022/06/29 04:10:31;;;;;;;5.68;5.15;;;;;;;22.82;55.73;99401.75;5050590;28;20020;-85
2022/06/29 04:12:57;;;;;;;6.25;5.50;;;;;;;21.85;55.61;99247.75;5051489;28;20397;-86
2022/06/29 04:15:22;;;;;;;6.43;5.25;;;;;;;22.91;55.72;99412.81;5050294;28;20405;-86
2022/06/29 04:17:48;;;;;;;5.90;5.28;;;;;;;23.29;55.82;99482.50;5050081;28;20029;-85
2022/06/29 04:21:05;;;;;;;5.90;5.30;;;;;;;23.10;55.92;99460.59;5050282;28;20067;-86
2022/06/29 04:23:02;;;;;;;7.10;4.90;;;;;;;22.80;55.83;99410.06;5051087;28;20025;-85
2022/06/29 04:25:28;;;;;;;5.30;4.80;;;;;;;23.53;55.88;99538.66;5051068;28;20029;-85
2022/06/29 04:27:54;;;;;;;5.35;4.88;;;;;;;23.59;55.87;99529.56;5049874;28;20025;-85
2022/06/29 04:30:19;;;;;;;5.70;5.07;;;;;;;23.61;55.95;99528.22;5049983;28;20117;-86
2022/06/29 04:32:45;;;;;;;7.32;4.90;;;;;;;23.42;55.92;99508.97;5050036;28;20394;-85
2022/06/29 04:35:11;;;;;;;6.10;5.43;;;;;;;23.55;55.60;99539.25;5051610;28;20029;-85
2022/06/29 04:37:36;;;;;;;6.25;5.43;;;;;;;23.26;55.64;99463.38;5051890;28;20083;-85
2022/06/29 04:40:03;;;;;;;7.05;5.68;;;;;;;22.92;55.29;99406.38;5050169;28;20078;-86
2022/06/29 04:42:31;;;;;;;5.22;4.72;;;;;;;23.58;55.08;99526.06;5049909;28;20108;-85
2022/06/29 04:44:56;;;;;;;5.13;4.63;;;;;;;23.25;54.96;99472.53;5049836;28;20389;-85
2022/06/29 04:47:22;;;;;;;6.13;5.50;;;;;;;22.87;55.05;99382.09;5050050;28;20032;-86
2022/06/29 04:49:47;;;;;;;6.18;5.55;;;;;;;23.39;54.85;99455.63;5051302;28;20029;-85
2022/06/29 04:52:13;;;;;;;6.22;5.30;;;;;;;22.33;54.86;99301.63;5050473;28;20512;-85
2022/06/29 04:54:39;;;;;;;5.80;5.20;;;;;;;23.53;54.64;99482.06;5058565;28;20033;-85
2022/06/29 04:57:06;;;;;;;7.93;5.50;;;;;;;23.98;54.71;99543.47;5056097;28;20045;-85
2022/06/29 04:59:32;;;;;;;5.97;4.97;;;;;;;24.01;54.88;99548.34;5053896;28;20025;-85
2022/06/29 05:01:58;;;;;;;7.93;5.82;;;;;;;23.56;54.60;99473.47;5055469;28;20033;-85
2022/06/29 05:04:24;;;;;;;6.20;5.35;;;;;;;22.13;54.61;99278.06;5055168;28;20027;-85
2022/06/29 05:06:49;;;;;;;6.68;5.97;;;;;;;23.32;54.58;99449.66;5055107;28;20497;-85
2022/06/29 05:09:15;;;;;;;7.38;6.20;;;;;;;23.50;54.58;99493.38;5057062;28;20050;-85
2022/06/29 05:11:40;;;;;;;7.93;6.53;;;;;;;23.32;54.75;99433.50;5076211;28;20052;-85
2022/06/29 05:14:05;;;;;;;6.85;6.20;;;;;;;23.63;54.71;99515.28;5073976;28;20044;-86
2022/06/29 05:16:31;;;;;;;6.47;5.03;;;;;;;23.85;54.49;99525.91;5055872;28;20021;-86
2022/06/29 05:18:56;;;;;;;7.53;6.00;;;;;;;23.51;54.25;99473.44;5053624;28;20111;-86
2022/06/29 05:21:22;;;;;;;8.32;7.32;;;;;;;23.88;54.44;99494.91;5053134;28;20029;-85
2022/06/29 05:23:47;;;;;;;6.80;5.78;;;;;;;24.04;54.15;99532.41;5053069;28;20020;-86
2022/06/29 05:26:13;;;;;;;7.75;6.90;;;;;;;23.72;53.89;99458.97;5054201;28;20096;-85
2022/06/29 05:28:39;;;;;;;7.65;6.82;;;;;;;23.37;54.03;99409.25;5054467;28;20040;-86
2022/06/29 05:31:04;;;;;;;6.93;6.18;;;;;;;23.84;53.79;99478.44;5052695;28;20039;-85
2022/06/29 05:33:36;;;;;;;8.52;5.60;;;;;;;23.70;53.59;99453.03;5054078;28;20409;-86
2022/06/29 05:36:10;;;;;;;;;;;;;;;24.17;53.84;99547.28;5053023;28;20025;-85
2022/06/29 05:38:37;;;;;;;8.10;6.13;;;;;;;24.30;53.71;99546.81;5053907;28;19947;-85
2022/06/29 05:41:03;;;;;;;7.50;5.53;;;;;;;24.08;53.29;99511.13;5052427;28;20025;-85
2022/06/29 05:43:30;;;;;;;5.75;5.28;;;;;;;24.23;53.22;99521.13;5053793;28;20086;-85
2022/06/29 05:45:56;;;;;;;6.95;5.50;;;;;;;24.33;53.17;99534.66;5052569;28;20108;-86
2022/06/29 05:48:22;;;;;;;6.40;5.80;;;;;;;24.05;53.21;99496.28;5052171;28;20097;-86
2022/06/29 05:50:47;;;;;;;9.35;6.07;;;;;;;24.42;52.95;99526.84;5040623;28;20033;-86
2022/06/29 05:53:14;;;;;;;7.00;6.43;;;;;;;24.19;52.97;99496.56;5051202;28;20500;-85
2022/06/29 05:55:39;;;;;;;8.90;6.55;;;;;;;24.45;53.04;99548.69;5045927;28;20049;-86
2022/06/29 05:58:05;;;;;;;11.10;6.07;;;;;;;24.66;52.91;99563.06;5043086;28;20036;-86
2022/06/29 06:00:31;;;;;;;7.45;6.65;;;;;;;24.67;53.05;99561.97;5053529;28;20119;-86
2022/06/29 06:02:56;;;;;;;6.47;5.93;;;;;;;24.36;52.92;99507.13;5052209;28;20021;-86
2022/06/29 06:05:21;;;;;;;9.68;6.28;;;;;;;24.73;52.65;99560.06;5052321;28;20029;-86
2022/06/29 06:07:47;;;;;;;10.23;6.53;;;;;;;24.87;52.61;99553.03;5046952;28;20006;-86
2022/06/29 06:10:12;;;;;;;6.90;6.28;;;;;;;24.97;52.55;99561.13;5032073;28;20410;-86
2022/06/29 06:12:38;;;;;;;6.57;5.80;;;;;;;24.16;52.00;99416.16;5032036;28;20036;-86
2022/06/29 06:15:04;;;;;;;8.55;6.97;;;;;;;24.15;52.25;99392.97;5032435;28;20022;-86
2022/06/29 06:17:29;;;;;;;7.25;6.22;;;;;;;24.97;51.96;99517.91;5032896;28;20048;-86
2022/06/29 06:19:55;;;;;;;7.43;5.70;;;;;;;25.17;51.54;99534.13;5033066;28;20523;-86
2022/06/29 06:22:21;;;;;;;7.53;5.22;;;;;;;24.66;51.17;99463.16;5043188;28;20025;-86
2022/06/29 06:24:47;;;;;;;7.18;6.47;;;;;;;25.35;50.96;99559.78;5042011;28;20053;-85
2022/06/29 06:27:13;;;;;;;8.82;5.75;;;;;;;25.15;50.70;99524.66;5031690;28;20505;-86
2022/06/29 06:29:38;;;;;;;7.63;6.40;;;;;;;25.03;50.30;99512.25;5031629;28;20026;-85
2022/06/29 06:32:04;;;;;;;11.35;5.93;;;;;;;24.90;50.24;99477.69;5041517;28;20017;-86
2022/06/29 06:34:31;;;;;;;6.35;5.75;;;;;;;25.45;50.06;99561.63;5053046;28;20035;-86
2022/06/29 06:36:57;;;;;;;6.25;5.65;;;;;;;25.54;50.04;99571.59;5053221;28;20027;-86
2022/06/29 06:39:23;;;;;;;5.90;5.07;;;;;;;25.28;49.66;99508.72;5053462;28;20029;-86
2022/06/29 06:41:48;;;;;;;6.07;5.47;;;;;;;25.64;49.50;99573.47;5053447;28;20028;-87
2022/06/29 06:44:14;;;;;;;6.22;5.60;;;;;;;25.22;49.37;99503.56;5047258;28;20026;-87
2022/06/29 06:46:41;;;;;;;6.20;5.63;;;;;;;25.61;49.52;99555.09;5032966;28;20027;-87
2022/06/29 06:49:06;;;;;;;7.85;7.13;;;;;;;25.64;49.34;99527.50;5035532;28;20029;-87
2022/06/29 06:51:32;;;;;;;7.05;6.05;;;;;;;25.43;48.82;99469.19;5033152;28;20074;-86
2022/06/29 06:53:57;;;;;;;7.82;6.82;;;;;;;25.86;48.69;99537.97;5031268;28;20083;-86
2022/06/29 06:56:23;;;;;;;5.40;4.70;;;;;;;25.77;48.29;99505.28;5030813;28;20042;-86
2022/06/29 06:58:48;;;;;;;5.55;4.85;;;;;;;25.63;47.73;99469.09;5032259;28;20022;-87
2022/06/29 07:01:13;;;;;;;6.03;5.47;;;;;;;26.02;47.74;99533.31;5031344;28;20033;-87
2022/06/29 07:03:39;;;;;;;6.07;5.03;;;;;;;25.53;47.51;99442.13;5032262;28;20029;-87
2022/06/29 07:06:06;;;;;;;6.45;5.57;;;;;;;26.37;47.26;99540.41;5040846;28;20017;-86
2022/06/29 07:08:35;;;;;;;7.80;5.35;;;;;;;25.84;46.77;99448.97;5056798;28;20036;-86
2022/06/29 07:11:02;;;;;;;7.18;5.68;;;;;;;26.52;46.15;99543.00;5069731;28;20032;-86
2022/06/29 07:13:28;;;;;;;5.35;4.70;;;;;;;25.72;45.62;99420.66;5054372;28;20025;-86
2022/06/29 07:15:54;;;;;;;11.88;7.15;;;;;;;26.68;45.39;99541.78;5047472;28;20493;-86
2022/06/29 07:18:19;;;;;;;7.13;4.80;;;;;;;26.76;44.36;99559.38;5047460;28;20033;-86
2022/06/29 07:20:45;;;;;;;5.75;5.25;;;;;;;26.82;44.51;99559.03;5051410;28;20504;-87
2022/06/29 07:23:11;;;;;;;15.23;4.75;;;;;;;26.16;44.08;99442.28;5034013;28;20171;-86
2022/06/29 07:25:37;;;;;;;6.95;4.63;;;;;;;25.64;43.82;99374.19;5034194;28;20113;-86
2022/06/29 07:28:02;;;;;;;5.25;4.53;;;;;;;26.64;43.55;99489.28;5032442;28;20027;-88
2022/06/29 07:30:28;;;;;;;8.27;7.38;;;;;;;26.79;43.97;99512.75;5030718;28;20025;-87
2022/06/29 07:32:54;;;;;;;6.55;5.95;;;;;;;26.65;43.58;99463.81;5030649;28;20021;-87
2022/06/29 07:35:19;;;;;;;8.18;4.30;;;;;;;26.48;42.90;99436.38;5031551;28;20342;-88
2022/06/29 07:37:44;;;;;;;6.25;4.10;;;;;;;26.22;42.33;99377.00;5030430;28;20126;-86
2022/06/29 07:40:11;;;;;;;6.20;5.57;;;;;;;26.78;41.88;99470.50;5033870;28;20108;-87
2022/06/29 07:42:36;;;;;;;7.75;4.45;;;;;;;26.32;41.68;99375.31;5038504;28;20100;-87
2022/06/29 07:45:03;;;;;;;5.93;4.50;;;;;;;27.13;41.54;99478.28;5050821;28;20550;-87
2022/06/29 07:47:28;;;;;;;6.72;4.57;;;;;;;27.43;41.40;99549.50;5041052;28;20017;-87
2022/06/29 07:49:54;;;;;;;5.85;4.10;;;;;;;27.51;40.36;99544.28;5033048;28;20472;-86
2022/06/29 07:52:20;;;;;;;5.63;4.35;;;;;;;27.13;40.41;99475.56;5030379;28;20105;-87
2022/06/29 07:54:45;;;;;;;6.97;3.92;;;;;;;27.43;39.96;99503.41;5030383;28;20498;-86
2022/06/29 07:57:11;;;;;;;6.80;3.90;;;;;;;27.53;39.36;99506.03;5030422;28;20041;-86
2022/06/29 07:59:36;;;;;;;9.75;7.53;;;;;;;28.00;39.52;99555.91;5035057;28;20018;-87
2022/06/29 08:02:02;;;;;;;5.55;4.28;;;;;;;26.92;39.06;99419.94;5044390;28;20492;-87
2022/06/29 08:04:27;;;;;;;9.07;4.82;;;;;;;27.78;38.81;99500.28;5048333;28;20045;-86
2022/06/29 08:06:53;;;;;;;8.85;3.72;;;;;;;27.64;38.04;99471.47;5051524;28;20013;-86
2022/06/29 08:09:18;;;;;;;6.38;3.67;;;;;;;27.69;37.47;99477.63;5063380;28;20025;-87
2022/06/29 08:11:44;;;;;;;4.30;3.50;;;;;;;27.31;36.77;99397.28;5059534;28;20067;-87
2022/06/29 08:14:10;;;;;;;5.65;3.80;;;;;;;28.25;36.83;99527.63;5036857;28;20096;-86
2022/06/29 08:16:35;;;;;;;5.93;4.10;;;;;;;28.31;36.35;99529.97;5051609;28;20059;-85
2022/06/29 08:19:01;;;;;;;5.75;5.15;;;;;;;28.47;36.60;99539.50;5050856;28;20104;-86
2022/06/29 08:21:26;;;;;;;5.70;4.47;;;;;;;28.64;36.69;99551.72;5050069;28;20028;-86
2022/06/29 08:23:52;;;;;;;5.93;3.20;;;;;;;28.61;36.05;99539.53;5051126;28;20162;-86
2022/06/29 08:26:17;;;;;;;10.02;3.58;;;;;;;28.60;35.44;99527.06;5049691;28;20013;-85
2022/06/29 08:28:43;;;;;;;6.30;3.30;;;;;;;28.67;35.47;99537.53;5049839;28;20020;-86
2022/06/29 08:31:08;;;;;;;10.07;4.25;;;;;;;27.88;35.40;99401.66;5039424;28;20028;-85
2022/06/29 08:33:34;;;;;;;7.10;5.97;;;;;;;28.85;35.60;99539.44;5030030;28;20017;-86
2022/06/29 08:35:59;;;;;;;10.32;9.43;;;;;;;29.01;36.02;99542.72;5029907;28;20032;-86
2022/06/29 08:38:24;;;;;;;7.68;5.05;;;;;;;28.55;35.30;99463.88;5032512;28;20022;-85
2022/06/29 08:40:50;;;;;;;6.50;4.10;;;;;;;29.26;34.95;99563.19;5036179;28;20505;-86
2022/06/29 08:43:19;;;;;;;6.70;3.28;;;;;;;29.36;34.47;99582.84;5041842;28;20106;-86
2022/06/29 08:45:46;;;;;;;4.13;3.20;;;;;;;28.97;34.18;99498.19;5039501;28;20100;-86
2022/06/29 08:48:13;;;;;;;4.30;3.80;;;;;;;28.87;33.94;99463.84;5034424;28;20387;-87
2022/06/29 08:50:40;;;;;;;7.47;3.78;;;;;;;28.70;34.06;99447.28;5038328;28;20500;-87
2022/06/29 08:53:08;;;;;;;5.13;3.38;;;;;;;29.49;34.12;99540.47;5059975;28;20020;-85
2022/06/29 08:55:40;;;;;;;3.60;3.22;;;;;;;29.19;33.69;99482.00;5074009;28;20044;-85
2022/06/29 08:58:06;;;;;;;4.40;3.05;;;;;;;29.21;33.56;99471.63;5075023;28;20032;-85
2022/06/29 09:00:36;;;;;;;6.43;3.03;;;;;;;29.70;33.44;99544.38;5074588;28;20108;-86
2022/06/29 09:03:04;;;;;;;8.02;3.03;;;;;;;28.02;32.81;99249.72;5069226;28;20470;-86
2022/06/29 09:05:30;;;;;;;5.53;2.70;;;;;;;29.36;32.30;99451.47;5039719;28;20030;-86
2022/06/29 09:07:55;;;;;;;7.72;4.93;;;;;;;29.75;32.47;99499.13;5033440;28;20418;-86
2022/06/29 09:10:23;;;;;;;5.93;3.17;;;;;;;30.35;32.25;99579.47;5033111;28;20040;-85
2022/06/29 09:12:49;;;;;;;7.20;4.70;;;;;;;29.82;32.48;99467.66;5037083;28;20080;-86
2022/06/29 09:15:15;;;;;;;7.28;3.97;;;;;;;29.94;32.05;99439.91;5045741;28;20035;-86
2022/06/29 09:17:41;;;;;;;6.78;4.00;;;;;;;30.26;31.97;99469.63;5053992;28;20029;-86
2022/06/29 09:20:10;;;;;;;7.85;6.63;;;;;;;30.07;31.83;99417.28;5037076;28;20032;-86
2022/06/29 09:22:41;;;;;;;5.90;4.78;;;;;;;30.52;31.64;99467.13;5040008;28;20033;-85
2022/06/29 09:25:23;;;;;;;5.13;3.42;;;;;;;31.24;30.66;99576.00;5034849;28;20056;-86
2022/06/29 09:27:48;;;;;;;6.15;3.10;;;;;;;30.84;30.12;99498.75;5032858;28;20029;-86
2022/06/29 09:30:29;;;;;;;7.40;4.50;;;;;;;31.16;30.45;99519.44;5034784;28;20120;-86
2022/06/29 09:33:04;;;;;;;4.40;3.20;;;;;;;31.68;30.27;99579.69;5054149;28;20507;-86
2022/06/29 09:35:30;;;;;;;4.95;3.08;;;;;;;31.81;29.65;99572.50;5054375;28;20675;-85
2022/06/29 09:38:24;;;;;;;7.20;4.20;;;;;;;32.05;29.11;99574.84;5053066;28;20036;-85
2022/06/29 09:41:03;;;;;;;6.45;4.07;;;;;;;31.88;29.60;99546.34;5033880;28;20033;-86
2022/06/29 09:43:30;;;;;;;7.78;3.83;;;;;;;31.73;29.50;99478.56;5046032;28;20040;-86
2022/06/29 09:45:56;;;;;;;4.78;3.10;;;;;;;32.42;28.99;99567.97;5053556;28;20021;-86
2022/06/29 09:48:25;;;;;;;5.80;3.83;;;;;;;32.53;28.95;99564.56;5053705;28;20425;-86
2022/06/29 09:50:52;;;;;;;4.68;3.35;;;;;;;32.09;28.06;99491.94;5053542;28;20052;-86
2022/06/29 09:53:19;;;;;;;6.95;3.50;;;;;;;32.72;27.86;99558.00;5052233;28;20067;-86
2022/06/29 09:55:50;;;;;;;8.95;3.00;;;;;;;32.90;27.69;99564.25;5025327;28;20081;-85
2022/06/29 09:58:22;;;;;;;9.35;3.20;;;;;;;32.74;27.58;99523.72;5013366;28;20033;-84
2022/06/29 10:03:33;;;;;;;8.07;4.25;;;;;;;32.78;27.20;99502.84;5013850;28;20401;-84
2022/06/29 10:06:05;;;;;;;10.90;8.30;;;;;;;33.20;27.15;99530.34;5012383;28;20014;-86
2022/06/29 10:08:32;;;;;;;5.55;4.13;;;;;;;33.29;27.18;99520.16;5013420;28;20022;-85
2022/06/29 10:13:39;;;;;;;5.78;3.55;;;;;;;31.89;27.06;99329.50;5012189;28;20032;-85
2022/06/29 10:13:54;;;;;;;6.18;4.65;;;;;;;33.78;27.22;99569.88;5013725;28;20030;-85
2022/06/29 10:16:23;;;;;;;;;;;;;;;33.85;27.43;99559.25;5011433;28;20029;-85
2022/06/29 10:19:14;;;;;;;5.80;3.72;;;;;;;33.99;27.03;99562.53;5012955;28;19913;-85
2022/06/29 10:21:39;;;;;;;6.18;3.65;;;;;;;34.27;26.43;99571.03;5012844;28;20033;-85
2022/06/29 10:24:05;;;;;;;7.75;5.50;;;;;;;34.07;26.67;99493.16;5013061;28;20762;-85
2022/06/29 10:26:31;;;;;;;6.93;3.88;;;;;;;34.78;26.33;99551.72;5011722;28;20076;-85
2022/06/29 10:29:19;;;;;;;4.10;3.42;;;;;;;34.99;25.64;99555.25;5013381;28;20041;-85
2022/06/29 10:31:51;;;;;;;5.95;3.70;;;;;;;35.06;25.78;99552.75;5018387;28;20065;-84
2022/06/29 10:34:31;;;;;;;10.30;3.78;;;;;;;35.17;25.47;99548.44;5011241;28;20124;-85
2022/06/29 10:37:02;;;;;;;7.63;3.58;;;;;;;35.17;25.29;99547.63;5014004;28;20029;-85
2022/06/29 10:39:46;;;;;;;6.10;3.30;;;;;;;35.28;25.29;99546.03;5012749;28;20465;-85
2022/06/29 10:45:24;;;;;;;6.03;3.20;;;;;;;34.72;25.11;99422.22;5013056;28;20036;-84
2022/06/29 10:47:56;;;;;;;9.73;8.07;;;;;;;35.46;24.42;99535.66;5013548;28;20022;-85
2022/06/29 10:50:26;;;;;;;8.52;4.97;;;;;;;34.87;24.38;99448.22;5031420;28;20509;-84
2022/06/29 10:52:53;;;;;;;7.05;4.70;;;;;;;35.67;24.58;99536.31;5032920;28;20021;-85
2022/06/29 10:55:19;;;;;;;9.65;6.35;;;;;;;35.19;24.01;99452.81;5033353;28;20061;-85
2022/06/29 10:57:46;;;;;;;9.15;6.35;;;;;;;35.68;24.59;99535.19;5031670;28;20052;-85
2022/06/29 11:00:23;;;;;;;7.55;3.60;;;;;;;34.81;24.04;99417.44;5033084;28;20047;-85
2022/06/29 11:02:50;;;;;;;8.52;5.55;;;;;;;35.68;23.89;99524.22;5032202;28;20029;-84
2022/06/29 11:05:15;;;;;;;10.40;7.40;;;;;;;35.28;24.01;99450.75;5027553;28;20045;-85
2022/06/29 11:13:21;;;;;;;5.60;3.03;;;;;;;35.73;23.28;99506.69;5015044;28;20107;-85
2022/06/29 11:15:49;;;;;;;6.55;3.80;;;;;;;36.06;23.50;99501.03;5017932;28;20077;-86
2022/06/29 11:18:19;;;;;;;4.30;2.92;;;;;;;36.18;22.91;99471.53;5035762;28;20030;-85
2022/06/29 11:20:48;;;;;;;4.78;2.70;;;;;;;35.95;23.06;99440.25;5042265;28;20025;-86
2022/06/29 11:23:17;;;;;;;5.15;3.20;;;;;;;36.11;22.23;99443.06;5038594;28;20029;-85
2022/06/29 11:25:48;;;;;;;7.82;5.40;;;;;;;36.11;23.52;99496.06;5033820;28;20030;-85
2022/06/29 11:28:17;;;;;;;9.52;4.63;;;;;;;35.77;22.96;99427.94;5034336;28;20136;-85
2022/06/29 11:31:02;;;;;;;6.30;3.17;;;;;;;35.94;22.67;99446.91;5028435;28;20046;-87
2022/06/29 11:33:33;;;;;;;6.07;3.03;;;;;;;35.96;22.44;99430.88;5015712;28;20025;-85
2022/06/29 11:36:06;;;;;;;6.18;3.60;;;;;;;36.60;22.62;99509.66;5012958;28;20030;-86
2022/06/29 11:38:38;;;;;;;7.40;3.28;;;;;;;36.10;22.43;99434.00;5013169;28;20100;-86
2022/06/29 11:41:18;;;;;;;5.28;3.83;;;;;;;35.69;21.80;99363.75;5012120;28;20045;-85
2022/06/29 11:43:45;;;;;;;6.33;4.00;;;;;;;36.26;21.82;99431.28;5015588;28;20029;-85
2022/06/29 11:46:22;;;;;;;5.03;4.38;;;;;;;36.60;21.83;99485.69;5018248;28;20253;-86
2022/06/29 11:51:58;;;;;;;6.60;3.75;;;;;;;36.92;21.70;99488.50;5011620;28;20029;-86
2022/06/29 11:54:40;;;;;;;6.50;4.45;;;;;;;37.17;21.19;99495.44;5010638;28;20069;-86